KONO

Ontario Municipal Airport

Ontario, Oregon, USA
METAR KONO 201653Z AUTO 35005KT 10SM SCT080 OVC100 18/13 A2993 RMK AO2 SLP125 T01780128
Observed Flight Rules
May-20 @ 16:53 UTC (21 minutes ago) Visual Flight Rules
Wind Visibility Clouds
350° at 5 knots 10 miles
  • Scattered at 8,000' AGL
  • Overcast at 10,000' AGL
Temperatures Readings
Current 18°C / 64°F
Dewpoint 13°C / 55°F
Humidity 73%
Altimeter 29.93" Hg
Pressure 1012.5 hPa
Elevation 667
METAR KONO 201653Z AUTO 35005KT 10SM SCT080 OVC100 18/13 A2993 RMK AO2 SLP125 T01780128
Observed Flight Rules
May-20 @ 16:53 UTC
(21 minutes ago)
VFR
Wind Visibility
350° at 5 knots 10 miles
Clouds
  • Scattered at 8,000' AGL
  • Overcast at 10,000' AGL
Temperature Dewpoint
18°C / 64°F 13°C / 55°F
Humidity Altimeter Pressure
73% 29.93" Hg 1012.5 hPa